Time;durP1;ratioP1;P1;durP2;ratioP2;P2;SDS_P1;SDS_P2;PMS_P1;PMS_P2;Temp;Humidity;BMP_temperature;BMP_pressure;BME280_temperature;BME280_humidity;BME280_pressure;Samples;Min_cycle;Max_cycle;Signal;HPM_P1;HPM_P2
2022/04/17 00:00:25;;;;;;;3.25;1.40;;;;;;;;;;5032612;28;20026;-37
2022/04/17 00:02:51;;;;;;;8.13;2.72;;;;;;;;;;5032829;28;20025;-37
2022/04/17 00:05:17;;;;;;;1.95;1.20;;;;;;;;;;5032686;28;20184;-37
2022/04/17 00:07:43;;;;;;;1.25;1.00;;;;;;;;;;5032932;28;20036;-37
2022/04/17 00:10:09;;;;;;;4.72;1.80;;;;;;;;;;5032704;28;20388;-37
2022/04/17 00:12:35;;;;;;;1.40;1.00;;;;;;;;;;5032797;28;20033;-37
2022/04/17 00:15:03;;;;;;;2.15;0.98;;;;;;;;;;5032419;28;20029;-37
2022/04/17 00:17:29;;;;;;;1.80;0.95;;;;;;;;;;5032494;28;20033;-38
2022/04/17 00:19:55;;;;;;;1.30;1.10;;;;;;;;;;5032704;28;20033;-37
2022/04/17 00:22:23;;;;;;;2.58;1.20;;;;;;;;;;5032575;28;20036;-38
2022/04/17 00:24:48;;;;;;;4.50;1.25;;;;;;;;;;5032553;28;20049;-37
2022/04/17 00:27:14;;;;;;;2.70;1.15;;;;;;;;;;5032698;28;20025;-37
2022/04/17 00:29:42;;;;;;;1.27;1.10;;;;;;;;;;5030846;28;20526;-37
2022/04/17 00:32:07;;;;;;;1.58;1.17;;;;;;;;;;5032607;28;20037;-37
2022/04/17 00:34:33;;;;;;;3.72;1.20;;;;;;;;;;5032384;28;20460;-37
2022/04/17 00:36:59;;;;;;;1.23;1.10;;;;;;;;;;5032059;28;20076;-42
2022/04/17 00:39:26;;;;;;;1.73;1.08;;;;;;;;;;5032361;28;20440;-37
2022/04/17 00:41:53;;;;;;;1.42;1.33;;;;;;;;;;5031990;28;20037;-38
2022/04/17 00:44:18;;;;;;;2.75;1.05;;;;;;;;;;5032147;28;20100;-37
2022/04/17 00:46:44;;;;;;;1.15;1.05;;;;;;;;;;5031888;28;20580;-37
2022/04/17 00:49:10;;;;;;;2.15;0.80;;;;;;;;;;5031856;28;20036;-37
2022/04/17 00:51:35;;;;;;;3.90;1.17;;;;;;;;;;5032139;28;20091;-37
2022/04/17 00:54:02;;;;;;;4.20;1.30;;;;;;;;;;5032079;28;20419;-37
2022/04/17 00:56:29;;;;;;;1.20;1.10;;;;;;;;;;5031804;28;20483;-37
2022/04/17 00:58:55;;;;;;;2.38;1.08;;;;;;;;;;5032108;28;20044;-37
2022/04/17 01:01:21;;;;;;;1.25;0.93;;;;;;;;;;5031239;28;20044;-40
2022/04/17 01:03:46;;;;;;;1.63;1.15;;;;;;;;;;5031801;28;20017;-37
2022/04/17 01:06:12;;;;;;;2.42;1.13;;;;;;;;;;5031675;28;20419;-37
2022/04/17 01:08:41;;;;;;;1.15;1.05;;;;;;;;;;5031898;28;20482;-37
2022/04/17 01:11:13;;;;;;;1.85;1.02;;;;;;;;;;5031684;28;20507;-37
2022/04/17 01:13:42;;;;;;;3.33;0.80;;;;;;;;;;5031792;28;20056;-38
2022/04/17 01:16:10;;;;;;;2.78;1.40;;;;;;;;;;5031597;28;20131;-37
2022/04/17 01:18:59;;;;;;;1.48;0.98;;;;;;;;;;5031665;28;20392;-37
2022/04/17 01:21:25;;;;;;;0.77;0.60;;;;;;;;;;5031662;28;20045;-37
2022/04/17 01:29:19;;;;;;;1.10;0.90;;;;;;;;;;5031451;28;20472;-37
2022/04/17 01:31:45;;;;;;;1.15;1.00;;;;;;;;;;5031342;28;20113;-37
2022/04/17 01:34:13;;;;;;;1.13;0.88;;;;;;;;;;5031282;28;20083;-37
2022/04/17 01:36:38;;;;;;;1.65;1.08;;;;;;;;;;5031630;28;20376;-37
2022/04/17 01:39:04;;;;;;;2.42;0.93;;;;;;;;;;5031450;28;20025;-37
2022/04/17 01:41:29;;;;;;;1.40;0.90;;;;;;;;;;5031160;28;20026;-37
2022/04/17 01:43:55;;;;;;;2.00;1.25;;;;;;;;;;5031247;28;20033;-37
2022/04/17 01:46:22;;;;;;;2.08;1.40;;;;;;;;;;5031048;28;20064;-37
2022/04/17 01:48:48;;;;;;;1.83;0.90;;;;;;;;;;5031532;28;20062;-37
2022/04/17 01:51:14;;;;;;;0.93;0.65;;;;;;;;;;5031227;28;20034;-37
2022/04/17 01:53:39;;;;;;;1.17;0.93;;;;;;;;;;5031312;28;20124;-37
2022/04/17 01:56:04;;;;;;;2.97;1.15;;;;;;;;;;5031143;28;20025;-37
2022/04/17 01:58:30;;;;;;;2.08;1.00;;;;;;;;;;5031373;28;20143;-37
2022/04/17 02:00:55;;;;;;;1.13;1.05;;;;;;;;;;5031018;28;20044;-37
2022/04/17 02:03:21;;;;;;;5.05;1.27;;;;;;;;;;5031307;28;20156;-37
2022/04/17 02:05:46;;;;;;;1.40;1.00;;;;;;;;;;5031084;28;20384;-37
2022/04/17 02:08:13;;;;;;;1.40;1.10;;;;;;;;;;5031328;28;20030;-37
2022/04/17 02:10:38;;;;;;;2.08;0.95;;;;;;;;;;5030982;28;20647;-37
2022/04/17 02:13:04;;;;;;;1.42;1.08;;;;;;;;;;5033307;28;20117;-37
2022/04/17 02:15:29;;;;;;;4.03;1.42;;;;;;;;;;5034639;28;20025;-37
2022/04/17 02:17:55;;;;;;;1.17;0.80;;;;;;;;;;5035128;28;20033;-37
2022/04/17 02:20:20;;;;;;;0.98;0.98;;;;;;;;;;5034645;28;20034;-37
2022/04/17 02:22:47;;;;;;;2.25;1.08;;;;;;;;;;5034648;28;20040;-37
2022/04/17 02:25:12;;;;;;;2.63;1.02;;;;;;;;;;5034664;28;20021;-37
2022/04/17 02:27:37;;;;;;;0.85;0.85;;;;;;;;;;5034842;28;20031;-38
2022/04/17 02:30:04;;;;;;;3.60;0.80;;;;;;;;;;5034598;28;20427;-37
2022/04/17 02:32:30;;;;;;;1.10;0.88;;;;;;;;;;5034442;28;20026;-37
2022/04/17 02:34:55;;;;;;;2.25;1.42;;;;;;;;;;5034420;28;20029;-37
2022/04/17 02:37:21;;;;;;;1.20;0.85;;;;;;;;;;5034401;28;20029;-37
2022/04/17 02:39:47;;;;;;;2.55;1.17;;;;;;;;;;5034285;28;20535;-37
2022/04/17 02:42:12;;;;;;;0.98;0.80;;;;;;;;;;5034656;28;20125;-37
2022/04/17 02:44:37;;;;;;;0.98;0.80;;;;;;;;;;5034458;28;20088;-37
2022/04/17 02:49:47;;;;;;;0.75;0.75;;;;;;;;;;5034296;28;20052;-37
2022/04/17 02:52:13;;;;;;;3.40;1.25;;;;;;;;;;5034098;28;20075;-37
2022/04/17 02:54:39;;;;;;;1.52;1.00;;;;;;;;;;5034360;28;20030;-37
2022/04/17 02:57:04;;;;;;;1.75;1.30;;;;;;;;;;5034008;28;20395;-37
2022/04/17 02:59:30;;;;;;;3.33;1.33;;;;;;;;;;5033890;28;20036;-37
2022/04/17 03:07:23;;;;;;;3.03;0.85;;;;;;;;;;5034112;28;20061;-36
2022/04/17 03:09:49;;;;;;;1.88;0.90;;;;;;;;;;5033871;28;20053;-37
2022/04/17 03:12:14;;;;;;;2.05;1.00;;;;;;;;;;5034068;28;20403;-37
2022/04/17 03:14:40;;;;;;;1.85;1.15;;;;;;;;;;5033940;28;20017;-40
2022/04/17 03:17:06;;;;;;;1.65;1.10;;;;;;;;;;5034049;28;20037;-37
2022/04/17 03:19:31;;;;;;;1.85;0.95;;;;;;;;;;5033644;28;20491;-37
2022/04/17 03:21:57;;;;;;;1.30;1.10;;;;;;;;;;5033644;28;20472;-37
2022/04/17 03:24:22;;;;;;;3.95;1.23;;;;;;;;;;5033262;28;20025;-37
2022/04/17 03:26:48;;;;;;;1.52;0.80;;;;;;;;;;5033492;28;20034;-37
2022/04/17 03:29:14;;;;;;;2.17;1.02;;;;;;;;;;5033772;28;20018;-37
2022/04/17 03:31:39;;;;;;;1.98;1.23;;;;;;;;;;5033607;28;20037;-37
2022/04/17 03:34:08;;;;;;;1.65;0.98;;;;;;;;;;5033329;28;20044;-37
2022/04/17 03:36:39;;;;;;;1.40;1.30;;;;;;;;;;5033335;28;20099;-37
2022/04/17 03:39:05;;;;;;;1.52;1.00;;;;;;;;;;5032021;28;20168;-37
2022/04/17 03:41:31;;;;;;;1.20;1.10;;;;;;;;;;5031804;28;20579;-37
2022/04/17 03:43:57;;;;;;;1.13;1.00;;;;;;;;;;5033378;28;20091;-37
2022/04/17 03:46:22;;;;;;;3.47;1.08;;;;;;;;;;5033018;28;20396;-38
2022/04/17 03:48:48;;;;;;;1.05;0.95;;;;;;;;;;5033341;28;20045;-37
2022/04/17 03:51:13;;;;;;;1.45;0.95;;;;;;;;;;5033134;28;20084;-37
2022/04/17 03:53:39;;;;;;;1.30;1.08;;;;;;;;;;5033239;28;20118;-37
2022/04/17 03:56:05;;;;;;;1.42;1.13;;;;;;;;;;5032860;28;20108;-37
2022/04/17 03:58:30;;;;;;;1.35;1.10;;;;;;;;;;5032886;28;20033;-38
2022/04/17 04:00:56;;;;;;;2.70;1.13;;;;;;;;;;5033142;28;20487;-37
2022/04/17 04:03:21;;;;;;;1.33;0.88;;;;;;;;;;5033030;28;20029;-37
2022/04/17 04:05:47;;;;;;;2.58;0.80;;;;;;;;;;5033010;28;20033;-37
2022/04/17 04:08:13;;;;;;;2.53;0.88;;;;;;;;;;5032748;28;20048;-37
2022/04/17 04:10:39;;;;;;;3.05;1.67;;;;;;;;;;5032932;28;20160;-37
2022/04/17 04:13:04;;;;;;;2.05;1.58;;;;;;;;;;5032705;28;20033;-37
2022/04/17 04:15:30;;;;;;;1.73;1.10;;;;;;;;;;5032612;28;20064;-37
2022/04/17 04:17:56;;;;;;;2.38;1.10;;;;;;;;;;5032874;28;20357;-37
2022/04/17 04:20:21;;;;;;;3.42;1.02;;;;;;;;;;5032697;28;20124;-37
2022/04/17 04:22:47;;;;;;;1.40;1.00;;;;;;;;;;5032371;28;20044;-37
2022/04/17 04:25:13;;;;;;;2.03;1.13;;;;;;;;;;5032394;28;20025;-37
2022/04/17 04:30:23;;;;;;;1.35;1.23;;;;;;;;;;5032408;28;20041;-37
2022/04/17 04:32:58;;;;;;;1.20;0.88;;;;;;;;;;5032255;28;20028;-37
2022/04/17 04:35:26;;;;;;;1.13;0.98;;;;;;;;;;5031827;28;20034;-37
2022/04/17 04:37:52;;;;;;;1.75;1.02;;;;;;;;;;5032042;28;20017;-37
2022/04/17 04:40:18;;;;;;;1.00;0.90;;;;;;;;;;5032188;28;20055;-37
2022/04/17 04:42:44;;;;;;;3.22;1.60;;;;;;;;;;5032345;28;20024;-37
2022/04/17 04:47:54;;;;;;;1.08;1.00;;;;;;;;;;5032072;28;20484;-37
2022/04/17 04:50:20;;;;;;;1.63;1.30;;;;;;;;;;5032004;28;20071;-37
2022/04/17 04:52:45;;;;;;;1.40;1.15;;;;;;;;;;5032158;28;20026;-37
2022/04/17 04:55:11;;;;;;;2.08;1.00;;;;;;;;;;5031915;28;20018;-37
2022/04/17 04:57:37;;;;;;;1.20;1.02;;;;;;;;;;5031833;28;20037;-37
2022/04/17 05:00:04;;;;;;;0.95;0.80;;;;;;;;;;5031684;28;20459;-37
2022/04/17 05:02:29;;;;;;;2.03;1.48;;;;;;;;;;5031657;28;20061;-37
2022/04/17 05:04:55;;;;;;;1.10;1.00;;;;;;;;;;5032086;28;20049;-37
2022/04/17 05:07:21;;;;;;;1.15;0.90;;;;;;;;;;5031880;28;20025;-37
2022/04/17 05:09:46;;;;;;;2.17;1.58;;;;;;;;;;5030393;28;20439;-37
2022/04/17 05:12:12;;;;;;;1.35;1.00;;;;;;;;;;5031684;28;20472;-37
2022/04/17 05:14:41;;;;;;;1.77;1.13;;;;;;;;;;5031422;28;20031;-37
2022/04/17 05:17:08;;;;;;;1.85;1.10;;;;;;;;;;5031463;28;20044;-37
2022/04/17 05:19:34;;;;;;;2.80;1.10;;;;;;;;;;5031299;28;20018;-37
2022/04/17 05:22:02;;;;;;;2.28;1.52;;;;;;;;;;5031523;28;20048;-37
2022/04/17 05:24:28;;;;;;;1.13;1.02;;;;;;;;;;5031394;28;20065;-37
2022/04/17 05:26:54;;;;;;;1.50;0.85;;;;;;;;;;5031412;28;20139;-37
2022/04/17 05:29:19;;;;;;;1.30;1.00;;;;;;;;;;5031444;28;20100;-37
2022/04/17 05:31:49;;;;;;;1.33;0.82;;;;;;;;;;5031225;28;20753;-37
2022/04/17 05:34:15;;;;;;;8.63;2.92;;;;;;;;;;5031282;28;20025;-37
2022/04/17 05:36:42;;;;;;;1.05;0.95;;;;;;;;;;5030277;28;20776;-37
2022/04/17 05:39:08;;;;;;;6.65;1.88;;;;;;;;;;5031863;28;20113;-37
2022/04/17 05:41:34;;;;;;;1.50;1.02;;;;;;;;;;5031446;28;20038;-37
2022/04/17 05:44:00;;;;;;;2.22;1.10;;;;;;;;;;5031581;28;20021;-37
2022/04/17 05:46:30;;;;;;;1.50;1.10;;;;;;;;;;5031375;28;20046;-37
2022/04/17 05:48:58;;;;;;;2.92;1.00;;;;;;;;;;5034209;28;20029;-37
2022/04/17 05:51:23;;;;;;;1.75;0.90;;;;;;;;;;5036037;28;20044;-37
2022/04/17 05:53:49;;;;;;;0.70;0.70;;;;;;;;;;5034390;28;20029;-37
2022/04/17 05:56:15;;;;;;;1.48;0.82;;;;;;;;;;5035635;28;20031;-37
2022/04/17 05:58:41;;;;;;;2.13;0.85;;;;;;;;;;5035616;28;20017;-37
2022/04/17 06:01:07;;;;;;;0.88;0.80;;;;;;;;;;5035314;28;20041;-37
2022/04/17 06:03:33;;;;;;;1.33;0.82;;;;;;;;;;5035331;28;20029;-37
2022/04/17 06:06:11;;;;;;;2.72;1.10;;;;;;;;;;5035084;28;20057;-37
2022/04/17 06:08:38;;;;;;;1.65;1.25;;;;;;;;;;5034984;28;20072;-37
2022/04/17 06:11:04;;;;;;;1.95;0.93;;;;;;;;;;5035169;28;20045;-37
2022/04/17 06:13:30;;;;;;;1.25;0.52;;;;;;;;;;5034826;28;20026;-37
2022/04/17 06:15:57;;;;;;;3.97;1.30;;;;;;;;;;5035053;28;20017;-37
2022/04/17 06:18:23;;;;;;;1.55;1.05;;;;;;;;;;5034749;28;20498;-37
2022/04/17 06:20:49;;;;;;;1.33;0.93;;;;;;;;;;5033440;28;20096;-37
2022/04/17 06:23:15;;;;;;;4.03;1.42;;;;;;;;;;5034723;28;20057;-37
2022/04/17 06:25:40;;;;;;;1.60;1.23;;;;;;;;;;5033442;28;20067;-37
2022/04/17 06:28:07;;;;;;;4.85;1.38;;;;;;;;;;5034678;28;20025;-37
2022/04/17 06:30:33;;;;;;;1.85;1.00;;;;;;;;;;5034502;28;20025;-37
2022/04/17 06:32:58;;;;;;;1.00;0.80;;;;;;;;;;5034579;28;20429;-37
2022/04/17 06:35:24;;;;;;;2.55;0.90;;;;;;;;;;5034736;28;20026;-37
2022/04/17 06:37:52;;;;;;;1.25;1.15;;;;;;;;;;5034633;28;20280;-37
2022/04/17 06:40:21;;;;;;;1.00;0.90;;;;;;;;;;5034419;28;20040;-37
2022/04/17 06:42:48;;;;;;;1.42;0.90;;;;;;;;;;5034412;28;20026;-37
2022/04/17 06:45:14;;;;;;;1.90;1.10;;;;;;;;;;5034036;28;20040;-37
2022/04/17 06:47:39;;;;;;;3.35;1.20;;;;;;;;;;5034270;28;20049;-37
2022/04/17 06:50:05;;;;;;;2.17;1.23;;;;;;;;;;5034466;28;20116;-37
2022/04/17 06:52:31;;;;;;;2.70;1.10;;;;;;;;;;5034031;28;20442;-37
2022/04/17 06:54:57;;;;;;;1.67;1.02;;;;;;;;;;5034396;28;20056;-37
2022/04/17 06:57:27;;;;;;;1.58;0.93;;;;;;;;;;5034014;28;20484;-37
2022/04/17 06:59:53;;;;;;;2.15;1.17;;;;;;;;;;5033910;28;20060;-37
2022/04/17 07:02:19;;;;;;;0.85;0.73;;;;;;;;;;5034234;28;20041;-37
2022/04/17 07:04:45;;;;;;;1.25;0.90;;;;;;;;;;5033902;28;20033;-37
2022/04/17 07:07:11;;;;;;;5.07;1.13;;;;;;;;;;5033881;28;20029;-36
2022/04/17 07:09:37;;;;;;;2.97;1.20;;;;;;;;;;5033788;28;20617;-37
2022/04/17 07:12:03;;;;;;;1.52;0.90;;;;;;;;;;5033851;28;20037;-38
2022/04/17 07:14:30;;;;;;;4.38;1.17;;;;;;;;;;5033554;28;20021;-37
2022/04/17 07:16:55;;;;;;;2.97;0.90;;;;;;;;;;5033848;28;20037;-37
2022/04/17 07:19:22;;;;;;;1.13;0.80;;;;;;;;;;5033607;28;20013;-37
2022/04/17 07:21:49;;;;;;;2.08;0.85;;;;;;;;;;5033579;28;20045;-37
2022/04/17 07:24:15;;;;;;;0.98;0.98;;;;;;;;;;5033584;28;20416;-37
2022/04/17 07:26:41;;;;;;;3.95;0.93;;;;;;;;;;5033489;28;20072;-37
2022/04/17 07:29:07;;;;;;;3.50;1.30;;;;;;;;;;5033773;28;20045;-37
2022/04/17 07:31:39;;;;;;;2.35;0.70;;;;;;;;;;5033387;28;20490;-37
2022/04/17 07:34:05;;;;;;;1.08;0.98;;;;;;;;;;5033719;28;20417;-37
2022/04/17 07:36:34;;;;;;;1.65;1.50;;;;;;;;;;5033322;28;20022;-37
2022/04/17 07:39:03;;;;;;;0.88;0.80;;;;;;;;;;5033303;28;20036;-37
2022/04/17 07:41:30;;;;;;;1.83;0.98;;;;;;;;;;5033191;28;20045;-37
2022/04/17 07:43:56;;;;;;;0.93;0.80;;;;;;;;;;5033108;28;20021;-37
2022/04/17 07:46:21;;;;;;;1.20;0.90;;;;;;;;;;5033108;28;20307;-37
2022/04/17 07:48:47;;;;;;;1.60;0.80;;;;;;;;;;5033402;28;20919;-37
2022/04/17 07:51:14;;;;;;;1.65;1.15;;;;;;;;;;5033040;28;20036;-37
2022/04/17 07:53:40;;;;;;;1.83;0.85;;;;;;;;;;5032941;28;20388;-37
2022/04/17 07:56:07;;;;;;;1.90;1.08;;;;;;;;;;5032948;28;20033;-37
2022/04/17 07:58:35;;;;;;;0.90;0.73;;;;;;;;;;5032725;28;20037;-37
2022/04/17 08:01:10;;;;;;;1.58;0.88;;;;;;;;;;5033150;28;20068;-38
2022/04/17 08:06:10;;;;;;;2.67;0.90;;;;;;;;;;5032849;28;20064;-37
2022/04/17 08:08:39;;;;;;;1.15;0.80;;;;;;;;;;5032641;28;20030;-37
2022/04/17 08:11:05;;;;;;;4.13;0.85;;;;;;;;;;5031711;28;20033;-37
2022/04/17 08:13:31;;;;;;;3.63;0.77;;;;;;;;;;5032826;28;20021;-37
2022/04/17 08:15:59;;;;;;;0.60;0.52;;;;;;;;;;5032708;28;20079;-37
2022/04/17 08:18:28;;;;;;;2.17;0.57;;;;;;;;;;5031294;28;20025;-37
2022/04/17 08:20:55;;;;;;;2.67;1.10;;;;;;;;;;5032403;28;20037;-38
2022/04/17 08:23:21;;;;;;;0.90;0.70;;;;;;;;;;5032479;28;20455;-37
2022/04/17 08:25:47;;;;;;;2.78;0.77;;;;;;;;;;5032254;28;20033;-37
2022/04/17 08:28:13;;;;;;;0.70;0.65;;;;;;;;;;5032494;28;20567;-37
2022/04/17 08:30:49;;;;;;;1.23;0.90;;;;;;;;;;5032240;28;20052;-37
2022/04/17 08:33:15;;;;;;;1.25;0.80;;;;;;;;;;5032551;28;20051;-37
2022/04/17 08:35:41;;;;;;;1.23;0.77;;;;;;;;;;5032272;28;20108;-37
2022/04/17 08:38:07;;;;;;;0.70;0.70;;;;;;;;;;5032526;28;20172;-37
2022/04/17 08:40:34;;;;;;;2.15;0.90;;;;;;;;;;5031950;28;20075;-37
2022/04/17 08:43:00;;;;;;;1.77;0.98;;;;;;;;;;5032138;28;20026;-37
2022/04/17 08:45:29;;;;;;;4.25;1.02;;;;;;;;;;5030829;28;20026;-37
2022/04/17 08:47:56;;;;;;;6.72;1.23;;;;;;;;;;5031981;28;20073;-37
2022/04/17 08:50:25;;;;;;;2.35;0.80;;;;;;;;;;5031991;28;20036;-37
2022/04/17 08:52:53;;;;;;;1.58;0.82;;;;;;;;;;5031860;28;20022;-37
2022/04/17 08:55:19;;;;;;;0.85;0.85;;;;;;;;;;5031751;28;20059;-37
2022/04/17 08:57:46;;;;;;;2.90;0.68;;;;;;;;;;5031873;28;20032;-37
2022/04/17 09:00:25;;;;;;;1.88;0.75;;;;;;;;;;5031662;28;20025;-37
2022/04/17 09:02:53;;;;;;;3.30;1.88;;;;;;;;;;5031752;28;20021;-37
2022/04/17 09:05:22;;;;;;;1.23;0.68;;;;;;;;;;5031711;28;20035;-37
2022/04/17 09:07:56;;;;;;;3.17;0.80;;;;;;;;;;5031898;28;20029;-38
2022/04/17 09:10:25;;;;;;;1.13;0.80;;;;;;;;;;5030730;28;20041;-37
2022/04/17 09:12:59;;;;;;;1.65;0.77;;;;;;;;;;5030596;28;20032;-37
2022/04/17 09:15:29;;;;;;;1.27;0.60;;;;;;;;;;5031523;28;20099;-37
2022/04/17 09:17:59;;;;;;;0.95;0.75;;;;;;;;;;5031590;28;20104;-37
2022/04/17 09:20:26;;;;;;;0.82;0.75;;;;;;;;;;5031305;28;20499;-37
2022/04/17 09:23:00;;;;;;;1.95;1.05;;;;;;;;;;5031103;28;20115;-37
2022/04/17 09:25:29;;;;;;;1.88;0.90;;;;;;;;;;5030553;28;20033;-37
2022/04/17 09:27:55;;;;;;;2.47;1.00;;;;;;;;;;5031479;28;20365;-37
2022/04/17 09:30:25;;;;;;;3.50;1.67;;;;;;;;;;5031381;28;20029;-37
2022/04/17 09:32:52;;;;;;;1.92;0.68;;;;;;;;;;5031325;28;20022;-44
2022/04/17 09:35:26;;;;;;;0.60;0.60;;;;;;;;;;5031368;28;20512;-37
2022/04/17 09:37:58;;;;;;;0.93;0.73;;;;;;;;;;5031647;28;20377;-37
2022/04/17 09:40:25;;;;;;;1.90;0.73;;;;;;;;;;5031231;28;20061;-37
2022/04/17 09:43:10;;;;;;;0.85;0.65;;;;;;;;;;5031068;28;20483;-37
2022/04/17 09:45:54;;;;;;;1.17;0.90;;;;;;;;;;5031365;28;20033;-37
2022/04/17 09:48:20;;;;;;;5.18;0.80;;;;;;;;;;5031295;28;20285;-37
2022/04/17 09:50:46;;;;;;;0.82;0.60;;;;;;;;;;5031220;28;20036;-37
2022/04/17 09:53:28;;;;;;;1.98;1.00;;;;;;;;;;5031126;28;20026;-37
2022/04/17 09:56:06;;;;;;;3.72;0.57;;;;;;;;;;5031160;28;20037;-37
2022/04/17 09:58:34;;;;;;;1.73;0.98;;;;;;;;;;5029799;28;20388;-37
2022/04/17 10:01:00;;;;;;;2.30;0.73;;;;;;;;;;5031180;28;20064;-37
2022/04/17 10:03:26;;;;;;;4.72;0.65;;;;;;;;;;5031083;28;20017;-37
2022/04/17 10:05:52;;;;;;;0.40;0.40;;;;;;;;;;5031368;28;20029;-37
2022/04/17 10:08:18;;;;;;;2.83;1.13;;;;;;;;;;5031338;28;20103;-37
2022/04/17 10:10:43;;;;;;;1.90;0.80;;;;;;;;;;5029758;28;20457;-37
2022/04/17 10:13:10;;;;;;;1.75;0.73;;;;;;;;;;5031003;28;20037;-40
2022/04/17 10:15:37;;;;;;;0.70;0.70;;;;;;;;;;5029694;28;20013;-37
2022/04/17 10:18:04;;;;;;;0.98;0.68;;;;;;;;;;5031050;28;20024;-37
2022/04/17 10:20:30;;;;;;;0.50;0.50;;;;;;;;;;5030971;28;20053;-37
2022/04/17 10:23:01;;;;;;;0.57;0.57;;;;;;;;;;5031348;28;20144;-37
2022/04/17 10:25:27;;;;;;;3.30;0.98;;;;;;;;;;5031202;28;20033;-37
2022/04/17 10:27:57;;;;;;;5.05;0.70;;;;;;;;;;5030858;28;20025;-37
2022/04/17 10:30:37;;;;;;;0.95;0.55;;;;;;;;;;5030915;28;20400;-37
2022/04/17 10:33:29;;;;;;;0.90;0.90;;;;;;;;;;5031700;28;20026;-38
2022/04/17 10:36:06;;;;;;;0.57;0.47;;;;;;;;;;5033198;28;20038;-37
2022/04/17 10:39:11;;;;;;;2.03;0.80;;;;;;;;;;5034362;28;20025;-37
2022/04/17 10:41:39;;;;;;;3.28;1.13;;;;;;;;;;5031135;28;20108;-37
2022/04/17 10:44:04;;;;;;;0.32;0.30;;;;;;;;;;5031908;28;20144;-37
2022/04/17 10:46:44;;;;;;;2.30;0.32;;;;;;;;;;5032998;28;20069;-38
2022/04/17 10:49:09;;;;;;;1.48;0.70;;;;;;;;;;5034267;28;20502;-37
2022/04/17 10:51:35;;;;;;;0.70;0.25;;;;;;;;;;5034197;28;20038;-37
2022/04/17 10:54:04;;;;;;;0.65;0.45;;;;;;;;;;5034069;28;20032;-38
2022/04/17 10:56:32;;;;;;;7.38;0.95;;;;;;;;;;5034214;28;20367;-37
2022/04/17 10:59:05;;;;;;;1.55;0.77;;;;;;;;;;5034210;28;20037;-37
2022/04/17 11:01:47;;;;;;;1.38;1.00;;;;;;;;;;5033839;28;20029;-37
2022/04/17 11:04:21;;;;;;;3.20;0.90;;;;;;;;;;5033993;28;20487;-37
2022/04/17 11:07:12;;;;;;;5.75;1.45;;;;;;;;;;5033972;28;20033;-37
2022/04/17 11:09:43;;;;;;;4.55;1.35;;;;;;;;;;5033757;28;20507;-37
2022/04/17 11:12:17;;;;;;;1.40;0.82;;;;;;;;;;5033876;28;20059;-37
2022/04/17 11:14:57;;;;;;;1.02;0.73;;;;;;;;;;5033648;28;20485;-40
2022/04/17 11:17:25;;;;;;;1.30;0.77;;;;;;;;;;5034014;28;20393;-37
2022/04/17 11:19:57;;;;;;;1.20;0.65;;;;;;;;;;5033672;28;20565;-37
2022/04/17 11:22:33;;;;;;;5.38;1.02;;;;;;;;;;5033739;28;20029;-37
2022/04/17 11:25:01;;;;;;;6.90;1.33;;;;;;;;;;5033618;28;20041;-37
2022/04/17 11:27:49;;;;;;;4.55;1.85;;;;;;;;;;5033625;28;20025;-38
2022/04/17 11:30:14;;;;;;;2.00;0.90;;;;;;;;;;5033526;28;20033;-38
2022/04/17 11:32:40;;;;;;;0.88;0.70;;;;;;;;;;5033710;28;20013;-37
2022/04/17 11:35:10;;;;;;;1.95;0.75;;;;;;;;;;5033437;28;20388;-37
2022/04/17 11:37:36;;;;;;;1.67;0.77;;;;;;;;;;5033613;28;20021;-37
2022/04/17 11:40:12;;;;;;;1.65;0.95;;;;;;;;;;5033309;28;20037;-37
2022/04/17 11:42:42;;;;;;;4.50;1.30;;;;;;;;;;5033232;28;20037;-37
2022/04/17 11:45:09;;;;;;;3.63;1.02;;;;;;;;;;5033053;28;20032;-37
2022/04/17 11:47:39;;;;;;;0.85;0.60;;;;;;;;;;5033001;28;20056;-37
2022/04/17 11:50:09;;;;;;;1.83;1.17;;;;;;;;;;5033163;28;20036;-37
2022/04/17 11:52:36;;;;;;;1.75;0.68;;;;;;;;;;5033083;28;20044;-37
2022/04/17 11:55:03;;;;;;;2.30;0.85;;;;;;;;;;5032967;28;20061;-37
2022/04/17 11:57:29;;;;;;;2.65;0.93;;;;;;;;;;5031803;28;20108;-37
2022/04/17 11:59:56;;;;;;;1.58;0.95;;;;;;;;;;5032945;28;20112;-37
2022/04/17 12:02:28;;;;;;;1.15;0.70;;;;;;;;;;5032897;28;20040;-37
2022/04/17 12:04:55;;;;;;;1.63;0.90;;;;;;;;;;5032870;28;20438;-37
2022/04/17 12:07:25;;;;;;;2.90;0.93;;;;;;;;;;5032948;28;20022;-37
2022/04/17 12:10:04;;;;;;;1.20;0.90;;;;;;;;;;5033054;28;20601;-37
2022/04/17 12:12:35;;;;;;;3.05;0.90;;;;;;;;;;5032671;28;20125;-37
2022/04/17 12:15:03;;;;;;;1.45;0.65;;;;;;;;;;5032602;28;20033;-37
2022/04/17 12:17:33;;;;;;;3.22;0.75;;;;;;;;;;5032605;28;20022;-37
2022/04/17 12:19:59;;;;;;;0.85;0.80;;;;;;;;;;5032801;28;20073;-37
2022/04/17 12:22:27;;;;;;;0.93;0.60;;;;;;;;;;5032599;28;20096;-37
2022/04/17 12:24:53;;;;;;;0.95;0.75;;;;;;;;;;5032662;28;20065;-37
2022/04/17 12:27:20;;;;;;;1.60;0.80;;;;;;;;;;5032436;28;20499;-37
2022/04/17 12:29:53;;;;;;;0.75;0.73;;;;;;;;;;5032149;28;20443;-37
2022/04/17 12:32:22;;;;;;;5.68;0.60;;;;;;;;;;5032403;28;20025;-37
2022/04/17 12:34:59;;;;;;;0.50;0.40;;;;;;;;;;5032037;28;20120;-37
2022/04/17 12:37:29;;;;;;;3.92;0.93;;;;;;;;;;5032233;28;20083;-37
2022/04/17 12:40:09;;;;;;;2.35;1.00;;;;;;;;;;5032081;28;20037;-37
2022/04/17 12:42:35;;;;;;;1.08;0.77;;;;;;;;;;5032090;28;20033;-37
2022/04/17 12:45:01;;;;;;;4.57;0.80;;;;;;;;;;5032313;28;20460;-37
2022/04/17 12:47:27;;;;;;;0.22;0.22;;;;;;;;;;5031972;28;20088;-37
2022/04/17 12:50:01;;;;;;;1.63;0.68;;;;;;;;;;5031915;28;20515;-38
2022/04/17 12:52:27;;;;;;;0.40;0.40;;;;;;;;;;5031986;28;20476;-38
2022/04/17 12:54:56;;;;;;;1.48;0.93;;;;;;;;;;5031763;28;20168;-37
2022/04/17 12:57:23;;;;;;;1.35;0.73;;;;;;;;;;5031411;28;20104;-38
2022/04/17 12:59:50;;;;;;;1.77;0.95;;;;;;;;;;5031740;28;20121;-37
2022/04/17 13:02:19;;;;;;;0.57;0.47;;;;;;;;;;5032109;28;20025;-37
2022/04/17 13:04:46;;;;;;;0.70;0.60;;;;;;;;;;5031955;28;20439;-37
2022/04/17 13:07:15;;;;;;;1.05;0.90;;;;;;;;;;5031791;28;20484;-37
2022/04/17 13:09:54;;;;;;;4.55;1.10;;;;;;;;;;5031609;28;20032;-37
2022/04/17 13:12:29;;;;;;;0.77;0.60;;;;;;;;;;5031661;28;20033;-37
2022/04/17 13:14:56;;;;;;;1.95;0.85;;;;;;;;;;5031816;28;20033;-37
2022/04/17 13:17:22;;;;;;;3.55;0.77;;;;;;;;;;5031823;28;20014;-37
2022/04/17 13:19:48;;;;;;;0.65;0.30;;;;;;;;;;5031357;28;20069;-37
2022/04/17 13:22:14;;;;;;;2.70;2.05;;;;;;;;;;5031504;28;20040;-38
2022/04/17 13:24:42;;;;;;;0.60;0.60;;;;;;;;;;5031218;28;20030;-37
2022/04/17 13:27:08;;;;;;;0.82;0.60;;;;;;;;;;5031857;28;20241;-37
2022/04/17 13:29:38;;;;;;;0.77;0.45;;;;;;;;;;5031435;28;20029;-37
2022/04/17 13:32:04;;;;;;;1.77;0.50;;;;;;;;;;5031394;28;20037;-37
2022/04/17 13:34:33;;;;;;;0.95;0.88;;;;;;;;;;5031414;28;20029;-37
2022/04/17 13:39:46;;;;;;;2.75;0.85;;;;;;;;;;5031473;28;20064;-37
2022/04/17 13:42:12;;;;;;;2.40;1.02;;;;;;;;;;5031231;28;20140;-37
2022/04/17 13:44:40;;;;;;;1.05;0.60;;;;;;;;;;5031216;28;20510;-38
2022/04/17 13:47:06;;;;;;;1.65;0.85;;;;;;;;;;5031121;28;20053;-37
2022/04/17 13:49:32;;;;;;;2.03;1.00;;;;;;;;;;5030053;28;20520;-37
2022/04/17 13:51:58;;;;;;;6.80;0.80;;;;;;;;;;5031318;28;20508;-38
2022/04/17 13:54:24;;;;;;;0.43;0.43;;;;;;;;;;5031135;28;20050;-37
2022/04/17 13:56:50;;;;;;;0.50;0.50;;;;;;;;;;5031176;28;20025;-37
2022/04/17 13:59:17;;;;;;;0.50;0.50;;;;;;;;;;5031123;28;20104;-37
2022/04/17 14:01:43;;;;;;;0.80;0.55;;;;;;;;;;5031035;28;20026;-37
2022/04/17 14:04:09;;;;;;;1.10;0.57;;;;;;;;;;5031188;28;20056;-37
2022/04/17 14:06:38;;;;;;;1.17;0.60;;;;;;;;;;5031067;28;20488;-37
2022/04/17 14:09:04;;;;;;;0.90;0.80;;;;;;;;;;5033879;28;20026;-37
2022/04/17 14:11:30;;;;;;;0.55;0.52;;;;;;;;;;5035275;28;20029;-37
2022/04/17 14:13:59;;;;;;;1.20;0.73;;;;;;;;;;5034792;28;20036;-37
2022/04/17 14:16:24;;;;;;;0.73;0.50;;;;;;;;;;5034887;28;20021;-37
2022/04/17 14:18:53;;;;;;;1.50;0.90;;;;;;;;;;5034801;28;20035;-37
2022/04/17 14:21:18;;;;;;;1.27;0.70;;;;;;;;;;5034996;28;20091;-37
2022/04/17 14:23:44;;;;;;;1.48;0.52;;;;;;;;;;5034574;28;20045;-37
2022/04/17 14:26:10;;;;;;;0.90;0.80;;;;;;;;;;5035035;28;20517;-37
2022/04/17 14:28:35;;;;;;;0.80;0.80;;;;;;;;;;5034788;28;20036;-38
2022/04/17 14:31:03;;;;;;;2.35;0.93;;;;;;;;;;5034684;28;20025;-37
2022/04/17 14:33:29;;;;;;;2.35;0.95;;;;;;;;;;5034625;28;20745;-37
2022/04/17 14:35:57;;;;;;;0.73;0.47;;;;;;;;;;5034410;28;20021;-37
2022/04/17 14:38:23;;;;;;;1.45;0.80;;;;;;;;;;5034612;28;20049;-37
2022/04/17 14:40:57;;;;;;;1.65;1.33;;;;;;;;;;5034339;28;20033;-37
2022/04/17 14:43:23;;;;;;;5.22;0.47;;;;;;;;;;5034395;28;20060;-37
2022/04/17 14:45:50;;;;;;;1.23;0.73;;;;;;;;;;5034201;28;20037;-37
2022/04/17 14:48:16;;;;;;;0.57;0.57;;;;;;;;;;5034361;28;20036;-37
2022/04/17 14:50:41;;;;;;;5.10;0.70;;;;;;;;;;5034113;28;20025;-37
2022/04/17 14:53:11;;;;;;;5.13;1.25;;;;;;;;;;5034204;28;20029;-37
2022/04/17 14:55:37;;;;;;;0.98;0.80;;;;;;;;;;5034125;28;20017;-37
2022/04/17 14:58:04;;;;;;;2.53;0.63;;;;;;;;;;5034153;28;20029;-37
2022/04/17 15:00:30;;;;;;;0.68;0.63;;;;;;;;;;5034056;28;20361;-37
2022/04/17 15:02:56;;;;;;;1.65;0.55;;;;;;;;;;5034534;28;20087;-37
2022/04/17 15:05:21;;;;;;;1.45;0.80;;;;;;;;;;5033703;28;20354;-37
2022/04/17 15:07:47;;;;;;;1.00;0.70;;;;;;;;;;5034254;28;20044;-37
2022/04/17 15:10:13;;;;;;;1.00;0.57;;;;;;;;;;5033928;28;20026;-37